Time;durP1;ratioP1;P1;durP2;ratioP2;P2;SDS_P1;SDS_P2;PMS_P1;PMS_P2;Temp;Humidity;BMP_temperature;BMP_pressure;BME280_temperature;BME280_humidity;BME280_pressure;Samples;Min_cycle;Max_cycle;Signal;HPM_P1;HPM_P2
2021/05/05 00:00:21;;;;;;;0.93;0.70;;;7.30;80.00;;;;;;5093060;28;20087;-91
2021/05/05 00:02:46;;;;;;;2.80;0.63;;;7.20;80.20;;;;;;5099624;28;20088;-91
2021/05/05 00:05:13;;;;;;;4.32;0.70;;;7.20;80.20;;;;;;5095052;28;20028;-92
2021/05/05 00:07:39;;;;;;;3.40;0.65;;;7.20;80.30;;;;;;5083669;28;20038;-91
2021/05/05 00:10:06;;;;;;;1.65;0.50;;;7.20;80.50;;;;;;5088443;28;20031;-90
2021/05/05 00:12:32;;;;;;;1.15;0.70;;;7.10;80.50;;;;;;5089041;28;20077;-91
2021/05/05 00:14:58;;;;;;;2.20;0.80;;;7.10;80.50;;;;;;5095510;28;20421;-90
2021/05/05 00:17:24;;;;;;;2.92;0.60;;;7.10;80.60;;;;;;5090634;28;20110;-90
2021/05/05 00:19:50;;;;;;;2.42;0.70;;;7.10;80.60;;;;;;5094220;28;20113;-90
2021/05/05 00:22:16;;;;;;;3.10;0.90;;;7.10;80.70;;;;;;5096750;28;20020;-90
2021/05/05 00:24:42;;;;;;;3.08;0.70;;;7.00;80.70;;;;;;5096013;28;20084;-90
2021/05/05 00:27:08;;;;;;;2.17;0.68;;;7.00;80.80;;;;;;5090564;28;20388;-90
2021/05/05 00:29:36;;;;;;;1.88;0.80;;;7.00;80.90;;;;;;5093350;28;20031;-91
2021/05/05 00:32:02;;;;;;;1.85;0.90;;;7.00;81.00;;;;;;5097121;28;20535;-91
2021/05/05 00:34:27;;;;;;;2.25;0.93;;;7.00;81.00;;;;;;5098310;28;20020;-91
2021/05/05 00:36:53;;;;;;;4.43;0.80;;;7.00;81.10;;;;;;5093211;28;20034;-91
2021/05/05 00:39:18;;;;;;;4.20;0.95;;;7.00;81.20;;;;;;5089287;28;20027;-91
2021/05/05 00:41:44;;;;;;;1.63;0.80;;;6.90;81.20;;;;;;5091595;28;20035;-91
2021/05/05 00:44:10;;;;;;;1.15;0.73;;;6.90;81.30;;;;;;5088826;28;20028;-91
2021/05/05 00:46:35;;;;;;;2.78;0.70;;;6.90;81.40;;;;;;5088104;28;20118;-91
2021/05/05 00:49:01;;;;;;;1.02;0.77;;;6.90;81.50;;;;;;5093702;28;20028;-91
2021/05/05 00:51:27;;;;;;;3.10;0.90;;;6.90;81.60;;;;;;5091571;28;20039;-91
2021/05/05 00:53:52;;;;;;;2.65;1.05;;;6.90;81.70;;;;;;5082687;28;20042;-92
2021/05/05 00:56:18;;;;;;;1.33;0.88;;;6.90;81.70;;;;;;5077831;28;20085;-91
2021/05/05 00:58:44;;;;;;;2.97;0.70;;;6.90;81.80;;;;;;5094258;28;20031;-91
2021/05/05 01:01:10;;;;;;;2.17;1.05;;;6.80;81.80;;;;;;5097595;28;20458;-92
2021/05/05 01:03:35;;;;;;;4.25;0.88;;;6.80;81.80;;;;;;5094627;28;20032;-91
2021/05/05 01:06:02;;;;;;;2.40;0.70;;;6.80;81.90;;;;;;5096059;28;20026;-91
2021/05/05 01:08:30;;;;;;;3.75;1.02;;;6.80;82.00;;;;;;5087071;28;20430;-90
2021/05/05 01:10:56;;;;;;;3.83;0.73;;;6.80;82.10;;;;;;5086145;28;20089;-91
2021/05/05 01:13:21;;;;;;;4.65;1.00;;;6.80;82.10;;;;;;5095062;28;20032;-91
2021/05/05 01:15:47;;;;;;;2.40;0.90;;;6.80;82.30;;;;;;5094764;28;20020;-91
2021/05/05 01:18:13;;;;;;;5.20;0.90;;;6.70;82.20;;;;;;5096757;28;20027;-90
2021/05/05 01:20:39;;;;;;;3.20;0.80;;;6.70;82.10;;;;;;5089488;28;20030;-90
2021/05/05 01:23:05;;;;;;;0.70;0.70;;;6.70;82.20;;;;;;5084919;28;20498;-91
2021/05/05 01:25:30;;;;;;;5.85;0.90;;;6.70;82.30;;;;;;5094381;28;20031;-91
2021/05/05 01:27:56;;;;;;;4.15;0.80;;;6.70;82.30;;;;;;5104270;28;20036;-91
2021/05/05 01:30:22;;;;;;;3.55;0.82;;;6.60;82.30;;;;;;5089997;28;20493;-91
2021/05/05 01:32:49;;;;;;;2.05;0.90;;;6.60;82.90;;;;;;5077586;28;20024;-91
2021/05/05 01:35:16;;;;;;;4.30;0.98;;;6.60;82.50;;;;;;5088078;28;20020;-91
2021/05/05 01:37:43;;;;;;;9.70;1.27;;;6.60;82.50;;;;;;5084212;28;20373;-89
2021/05/05 01:40:12;;;;;;;4.68;0.95;;;6.60;82.60;;;;;;5088510;28;20020;-91
2021/05/05 01:42:38;;;;;;;2.92;1.00;;;6.60;82.80;;;;;;5076518;28;20036;-91
2021/05/05 01:45:07;;;;;;;3.55;0.90;;;6.50;82.70;;;;;;5096220;28;20201;-90
2021/05/05 01:47:33;;;;;;;1.88;0.80;;;6.50;82.90;;;;;;5095076;28;20503;-90
2021/05/05 01:49:59;;;;;;;2.97;1.00;;;6.50;82.90;;;;;;5095467;28;20063;-91
2021/05/05 01:52:24;;;;;;;3.10;0.98;;;6.50;82.90;;;;;;5096081;28;20023;-91
2021/05/05 01:54:50;;;;;;;2.63;0.95;;;6.50;83.00;;;;;;5087927;28;20034;-90
2021/05/05 01:57:33;;;;;;;3.53;0.80;;;6.50;83.10;;;;;;5091542;28;20027;-90
2021/05/05 02:00:01;;;;;;;0.85;0.75;;;6.50;83.30;;;;;;5095851;28;20028;-91
2021/05/05 02:02:30;;;;;;;3.55;1.02;;;6.50;83.20;;;;;;5094645;28;20031;-91
2021/05/05 02:04:56;;;;;;;1.23;0.70;;;6.50;83.20;;;;;;5095020;28;20093;-91
2021/05/05 02:07:23;;;;;;;2.22;0.90;;;6.50;83.10;;;;;;5094976;28;20726;-91
2021/05/05 02:09:49;;;;;;;4.88;1.00;;;6.40;83.20;;;;;;5085319;28;20028;-91
2021/05/05 02:12:15;;;;;;;3.38;0.90;;;6.40;83.30;;;;;;5085347;28;20024;-91
2021/05/05 02:14:42;;;;;;;2.40;0.95;;;6.40;83.30;;;;;;5099390;28;20035;-90
2021/05/05 02:17:08;;;;;;;5.45;1.08;;;6.40;83.30;;;;;;5107247;28;20012;-91
2021/05/05 02:19:34;;;;;;;3.85;1.10;;;6.40;83.40;;;;;;5111548;28;20333;-91
2021/05/05 02:21:59;;;;;;;2.25;1.02;;;6.40;83.50;;;;;;5114788;28;20035;-91
2021/05/05 02:24:25;;;;;;;6.95;1.38;;;6.30;83.50;;;;;;5101672;28;20028;-91
2021/05/05 02:26:51;;;;;;;4.93;1.13;;;6.40;83.60;;;;;;5093146;28;20062;-91
2021/05/05 02:29:16;;;;;;;2.72;1.00;;;6.40;83.70;;;;;;5084167;28;20487;-91
2021/05/05 02:31:42;;;;;;;2.25;0.90;;;6.40;83.70;;;;;;5099375;28;20039;-92
2021/05/05 02:34:12;;;;;;;4.10;0.90;;;6.40;83.70;;;;;;5092523;28;20024;-91
2021/05/05 02:36:38;;;;;;;5.70;1.10;;;6.40;83.80;;;;;;5096925;28;20484;-91
2021/05/05 02:39:06;;;;;;;5.10;1.15;;;6.40;83.80;;;;;;5098246;28;20110;-91
2021/05/05 02:41:38;;;;;;;5.80;1.30;;;6.40;83.90;;;;;;5103049;28;20024;-91
2021/05/05 02:44:04;;;;;;;2.13;1.40;;;6.40;83.90;;;;;;5107957;28;20023;-90
2021/05/05 02:46:30;;;;;;;4.05;1.00;;;6.40;83.80;;;;;;5107389;28;20281;-91
2021/05/05 02:48:56;;;;;;;4.40;1.50;;;6.40;84.00;;;;;;5092166;28;20028;-91
2021/05/05 02:51:22;;;;;;;5.50;1.25;;;6.40;84.20;;;;;;5097478;28;20084;-91
2021/05/05 02:53:48;;;;;;;4.07;1.20;;;6.40;84.10;;;;;;5116666;28;20085;-92
2021/05/05 02:56:13;;;;;;;2.05;1.10;;;6.40;84.40;;;;;;5098284;28;20030;-91
2021/05/05 02:58:39;;;;;;;2.58;1.10;;;6.40;84.20;;;;;;5099477;28;20106;-91
2021/05/05 03:01:05;;;;;;;2.30;1.05;;;6.30;84.30;;;;;;5093503;28;20039;-91
2021/05/05 03:03:31;;;;;;;4.70;1.13;;;6.40;84.40;;;;;;5102092;28;20491;-92
2021/05/05 03:05:56;;;;;;;3.00;1.10;;;6.40;84.40;;;;;;5103199;28;20171;-92
2021/05/05 03:08:22;;;;;;;2.38;1.20;;;6.40;84.50;;;;;;5118480;28;20457;-92
2021/05/05 03:10:52;;;;;;;3.53;0.90;;;6.40;84.50;;;;;;5100964;28;20031;-92
2021/05/05 03:13:18;;;;;;;3.45;1.20;;;6.40;84.50;;;;;;5095134;28;20057;-92
2021/05/05 03:15:50;;;;;;;2.58;1.20;;;6.40;84.60;;;;;;5094093;28;20031;-92
2021/05/05 03:18:19;;;;;;;1.95;1.13;;;6.40;84.80;;;;;;5099488;28;20080;-92
2021/05/05 03:20:45;;;;;;;3.35;1.20;;;6.40;84.70;;;;;;5099950;28;20035;-92
2021/05/05 03:23:11;;;;;;;5.90;1.23;;;6.40;84.60;;;;;;5097637;28;20035;-92
2021/05/05 03:25:37;;;;;;;2.88;1.20;;;6.40;84.60;;;;;;5100178;28;20023;-91
2021/05/05 03:30:30;;;;;;;4.60;1.25;;;6.40;84.80;;;;;;5080781;28;20047;-69
2021/05/05 03:32:56;;;;;;;2.75;1.13;;;6.40;84.80;;;;;;5080663;28;20024;-68
2021/05/05 03:35:21;;;;;;;3.97;1.40;;;6.40;84.90;;;;;;5089734;28;20391;-69
2021/05/05 03:37:47;;;;;;;1.92;1.60;;;6.40;85.00;;;;;;5090954;28;20055;-67
2021/05/05 03:40:13;;;;;;;3.90;1.30;;;6.40;85.00;;;;;;5091527;28;20127;-69
2021/05/05 03:42:38;;;;;;;6.40;1.50;;;6.40;85.10;;;;;;5089431;28;20040;-69
2021/05/05 03:45:07;;;;;;;3.75;1.60;;;6.40;85.10;;;;;;5089564;28;20024;-69
2021/05/05 03:47:32;;;;;;;5.75;1.33;;;6.40;85.20;;;;;;5090847;28;20456;-69
2021/05/05 03:49:58;;;;;;;3.10;1.30;;;6.40;85.00;;;;;;5090660;28;20130;-69
2021/05/05 03:52:24;;;;;;;4.72;1.40;;;6.40;85.00;;;;;;5090603;28;20108;-68
2021/05/05 03:54:50;;;;;;;1.65;1.23;;;6.40;85.10;;;;;;5090001;28;20024;-67
2021/05/05 03:57:15;;;;;;;2.70;1.25;;;6.40;85.20;;;;;;5089285;28;20023;-69
2021/05/05 03:59:41;;;;;;;6.00;1.45;;;6.30;85.30;;;;;;5091092;28;20081;-70
2021/05/05 04:02:06;;;;;;;4.22;1.48;;;6.40;85.30;;;;;;5090721;28;20086;-69
2021/05/05 04:04:32;;;;;;;5.78;1.55;;;6.40;85.40;;;;;;5089365;28;20028;-69
2021/05/05 04:06:58;;;;;;;2.65;1.42;;;6.30;85.30;;;;;;5089775;28;20099;-69
2021/05/05 04:09:24;;;;;;;2.05;1.52;;;6.30;85.30;;;;;;5088878;28;20062;-70
2021/05/05 04:11:50;;;;;;;5.45;1.48;;;6.40;85.40;;;;;;5078116;28;20031;-70
2021/05/05 04:14:15;;;;;;;2.67;1.20;;;6.40;85.50;;;;;;5088811;28;20024;-70
2021/05/05 04:16:41;;;;;;;3.67;1.50;;;6.30;85.40;;;;;;5081720;28;20032;-69
2021/05/05 04:19:06;;;;;;;2.80;1.55;;;6.30;85.40;;;;;;5090625;28;20118;-67
2021/05/05 04:21:33;;;;;;;4.53;1.63;;;6.30;85.50;;;;;;5090092;28;20549;-70
2021/05/05 04:23:59;;;;;;;5.35;1.63;;;6.30;85.60;;;;;;5087579;28;20371;-69
2021/05/05 04:26:25;;;;;;;5.47;1.60;;;6.40;85.70;;;;;;5090050;28;20062;-67
2021/05/05 04:28:51;;;;;;;3.03;1.73;;;6.40;85.70;;;;;;5089114;28;20486;-68
2021/05/05 04:31:17;;;;;;;7.35;1.80;;;6.40;85.70;;;;;;5089913;28;20024;-69
2021/05/05 04:33:45;;;;;;;3.42;2.03;;;6.40;85.70;;;;;;5090364;28;20027;-69
2021/05/05 04:36:11;;;;;;;3.15;1.58;;;6.40;85.70;;;;;;5087675;28;20094;-69
2021/05/05 04:38:36;;;;;;;3.42;1.90;;;6.40;85.70;;;;;;5090383;28;20064;-70
2021/05/05 04:41:03;;;;;;;4.32;2.10;;;6.40;85.70;;;;;;5088841;28;20103;-69
2021/05/05 04:43:28;;;;;;;5.82;1.70;;;6.40;85.80;;;;;;5086655;28;20387;-70
2021/05/05 04:45:54;;;;;;;3.47;1.73;;;6.50;85.80;;;;;;5088777;28;20127;-70
2021/05/05 04:48:20;;;;;;;4.68;1.98;;;6.50;85.80;;;;;;5089703;28;20031;-70
2021/05/05 04:50:46;;;;;;;3.83;1.85;;;6.50;85.80;;;;;;5089048;28;20056;-68
2021/05/05 04:53:11;;;;;;;3.67;2.25;;;6.50;85.90;;;;;;5089828;28;20359;-68
2021/05/05 04:55:37;;;;;;;2.58;2.35;;;6.50;85.90;;;;;;5087865;28;20032;-70
2021/05/05 04:58:02;;;;;;;3.10;1.80;;;6.50;85.80;;;;;;5087292;28;20052;-69
2021/05/05 05:00:28;;;;;;;4.05;2.05;;;6.50;85.80;;;;;;5089841;28;20446;-70
2021/05/05 05:02:54;;;;;;;5.55;3.00;;;6.50;85.90;;;;;;5089862;28;20024;-70
2021/05/05 05:05:22;;;;;;;3.78;2.28;;;6.50;85.80;;;;;;5088436;28;20116;-70
2021/05/05 05:07:47;;;;;;;3.72;2.22;;;6.60;85.90;;;;;;5089147;28;20107;-70
2021/05/05 05:10:13;;;;;;;3.55;2.10;;;6.60;85.90;;;;;;5089567;28;20115;-70
2021/05/05 05:12:38;;;;;;;5.60;2.50;;;6.60;85.80;;;;;;5089268;28;20107;-70
2021/05/05 05:15:05;;;;;;;5.38;2.20;;;6.60;85.80;;;;;;5088689;28;20045;-68
2021/05/05 05:17:30;;;;;;;8.82;2.58;;;6.60;85.80;;;;;;5088100;28;20069;-70
2021/05/05 05:19:56;;;;;;;2.50;1.95;;;6.70;85.80;;;;;;5089646;28;20065;-68
2021/05/05 05:22:22;;;;;;;3.67;2.20;;;6.60;85.70;;;;;;5089370;28;20059;-70
2021/05/05 05:24:47;;;;;;;4.40;2.20;;;6.60;85.70;;;;;;5088314;28;20500;-70
2021/05/05 05:27:13;;;;;;;3.97;2.17;;;6.70;85.70;;;;;;5086442;28;20387;-68
2021/05/05 05:29:38;;;;;;;4.70;1.95;;;6.70;85.70;;;;;;5083527;28;20042;-68
2021/05/05 05:32:04;;;;;;;2.42;1.73;;;6.70;85.70;;;;;;5088014;28;20020;-70
2021/05/05 05:34:30;;;;;;;3.15;1.80;;;6.70;85.70;;;;;;5087786;28;20021;-70
2021/05/05 05:36:55;;;;;;;2.60;1.60;;;6.80;85.60;;;;;;5081438;28;20042;-69
2021/05/05 05:39:21;;;;;;;2.47;1.83;;;6.80;85.60;;;;;;5088012;28;20468;-70
2021/05/05 05:41:46;;;;;;;5.63;1.80;;;6.80;85.50;;;;;;5088152;28;20393;-70
2021/05/05 05:44:13;;;;;;;7.05;1.90;;;6.80;85.60;;;;;;5088782;28;20113;-70
2021/05/05 05:46:39;;;;;;;7.32;3.33;;;6.90;85.60;;;;;;5089791;28;20032;-69
2021/05/05 05:49:08;;;;;;;6.80;2.03;;;6.90;85.50;;;;;;5088666;28;20031;-71
2021/05/05 05:51:35;;;;;;;3.67;1.70;;;6.90;85.50;;;;;;5088751;28;20085;-70
2021/05/05 05:54:01;;;;;;;5.93;1.83;;;6.90;85.40;;;;;;5088087;28;20048;-70
2021/05/05 05:56:27;;;;;;;4.80;1.70;;;6.90;85.30;;;;;;5088275;28;20024;-70
2021/05/05 05:58:52;;;;;;;7.53;1.92;;;7.00;85.40;;;;;;5088911;28;20028;-70
2021/05/05 06:01:18;;;;;;;7.20;2.20;;;7.10;85.40;;;;;;5089863;28;20063;-70
2021/05/05 06:03:43;;;;;;;4.30;1.52;;;7.20;85.30;;;;;;5085008;28;20036;-68
2021/05/05 06:06:10;;;;;;;3.78;1.52;;;7.20;85.20;;;;;;5088708;28;20032;-69
2021/05/05 06:08:37;;;;;;;6.32;1.40;;;7.20;85.10;;;;;;5093756;28;20047;-68
2021/05/05 06:11:03;;;;;;;5.15;1.70;;;7.30;85.10;;;;;;5093290;28;20027;-70
2021/05/05 06:13:29;;;;;;;4.90;1.48;;;7.40;85.10;;;;;;5094005;28;20024;-70
2021/05/05 06:15:54;;;;;;;3.78;1.95;;;7.40;85.00;;;;;;5090600;28;20387;-71
2021/05/05 06:18:20;;;;;;;2.78;1.50;;;7.50;84.90;;;;;;5092903;28;20491;-69
2021/05/05 06:20:46;;;;;;;5.95;1.40;;;7.50;85.10;;;;;;5093085;28;20069;-71
2021/05/05 06:23:11;;;;;;;4.53;1.55;;;7.60;84.80;;;;;;5093379;28;20032;-70
2021/05/05 06:25:37;;;;;;;2.88;1.30;;;7.60;84.50;;;;;;5092230;28;20186;-70
2021/05/05 06:28:03;;;;;;;3.20;1.35;;;7.60;84.30;;;;;;5092780;28;20028;-69
2021/05/05 06:30:29;;;;;;;6.53;1.95;;;7.70;84.50;;;;;;5090724;28;20024;-68
2021/05/05 06:32:54;;;;;;;4.28;1.77;;;7.70;84.40;;;;;;5091973;28;20066;-68
2021/05/05 06:35:20;;;;;;;4.50;1.75;;;7.70;84.40;;;;;;5090860;28;20020;-70
2021/05/05 06:37:46;;;;;;;4.40;1.70;;;7.70;84.60;;;;;;5090564;28;20039;-69
2021/05/05 06:40:12;;;;;;;5.22;1.75;;;7.80;84.50;;;;;;5092352;28;20490;-70
2021/05/05 06:42:38;;;;;;;4.57;1.63;;;7.80;84.50;;;;;;5093295;28;20363;-70
2021/05/05 06:45:05;;;;;;;6.68;2.25;;;7.90;84.20;;;;;;5092109;28;20111;-70
2021/05/05 06:47:32;;;;;;;5.80;1.30;;;8.00;83.90;;;;;;5091679;28;20111;-68
2021/05/05 06:49:57;;;;;;;3.25;1.30;;;8.10;83.60;;;;;;5092753;28;20535;-69
2021/05/05 06:52:23;;;;;;;4.97;1.70;;;8.10;83.40;;;;;;5088728;28;20103;-68
2021/05/05 06:54:49;;;;;;;4.10;1.40;;;8.20;83.20;;;;;;5090168;28;20059;-69
2021/05/05 06:57:14;;;;;;;9.02;1.63;;;8.20;83.10;;;;;;5092502;28;20024;-70
2021/05/05 06:59:40;;;;;;;6.30;1.60;;;8.30;83.00;;;;;;5074959;28;20652;-68
2021/05/05 07:02:06;;;;;;;4.15;1.67;;;8.40;82.60;;;;;;5091355;28;20028;-69
2021/05/05 07:04:31;;;;;;;2.92;1.52;;;8.40;82.80;;;;;;5089748;28;20035;-67
2021/05/05 07:06:57;;;;;;;8.30;2.20;;;8.40;82.80;;;;;;5091970;28;20210;-69
2021/05/05 07:09:22;;;;;;;4.18;2.13;;;8.50;82.80;;;;;;5092189;28;20032;-70
2021/05/05 07:11:48;;;;;;;4.57;1.20;;;8.40;82.80;;;;;;5091255;28;20033;-70
2021/05/05 07:14:14;;;;;;;6.68;1.77;;;8.50;82.50;;;;;;5086346;28;20092;-69
2021/05/05 07:16:40;;;;;;;7.32;1.90;;;8.50;82.10;;;;;;5089900;28;20067;-68
2021/05/05 07:19:05;;;;;;;3.38;1.55;;;8.50;82.00;;;;;;5091100;28;20020;-69
2021/05/05 07:21:31;;;;;;;5.03;1.10;;;8.50;81.70;;;;;;5091808;28;20028;-69
2021/05/05 07:23:57;;;;;;;4.55;2.00;;;8.60;81.20;;;;;;5091941;28;20060;-69
2021/05/05 07:26:23;;;;;;;4.40;1.70;;;8.80;81.00;;;;;;5084041;28;20475;-70
2021/05/05 07:28:49;;;;;;;13.02;4.88;;;8.70;80.50;;;;;;5083003;28;20068;-68
2021/05/05 07:31:15;;;;;;;18.42;6.38;;;8.60;80.40;;;;;;5089529;28;20028;-69
2021/05/05 07:33:40;;;;;;;5.35;1.23;;;8.60;79.90;;;;;;5091077;28;21800;-68
2021/05/05 07:36:13;;;;;;;4.93;1.25;;;8.90;79.30;;;;;;5092921;28;20146;-68
2021/05/05 07:46:41;;;;;;;3.90;1.00;;;9.10;77.20;;;;;;5092189;28;20739;-69
2021/05/05 07:49:09;;;;;;;8.20;1.23;;;9.40;76.10;;;;;;5091975;28;20602;-69
2021/05/05 07:51:35;;;;;;;2.50;1.45;;;9.90;74.70;;;;;;5092128;28;20114;-68
2021/05/05 07:54:01;;;;;;;3.92;1.00;;;10.70;73.40;;;;;;5090774;28;20515;-69
2021/05/05 07:56:27;;;;;;;2.50;1.17;;;10.30;73.40;;;;;;5092352;28;20035;-69
2021/05/05 07:58:53;;;;;;;4.15;1.20;;;11.10;72.30;;;;;;5108642;28;20016;-68
2021/05/05 08:01:19;;;;;;;2.97;1.40;;;10.80;71.80;;;;;;5100405;28;20039;-69
2021/05/05 08:03:44;;;;;;;7.65;1.42;;;11.60;70.20;;;;;;5090575;28;20146;-70
2021/05/05 08:06:10;;;;;;;4.47;1.15;;;11.30;70.20;;;;;;5090630;28;20522;-67
2021/05/05 08:08:36;;;;;;;2.65;1.20;;;11.00;70.50;;;;;;5092059;28;20030;-69
2021/05/05 08:11:02;;;;;;;2.55;1.13;;;11.60;68.70;;;;;;5091796;28;20174;-69
2021/05/05 08:13:28;;;;;;;2.17;1.05;;;11.70;68.30;;;;;;5090793;28;20017;-69
2021/05/05 08:15:55;;;;;;;3.45;1.20;;;12.80;66.90;;;;;;5090842;28;20023;-69
2021/05/05 08:18:21;;;;;;;5.03;1.13;;;13.80;64.30;;;;;;5091835;28;20024;-69
2021/05/05 08:20:48;;;;;;;1.40;0.88;;;14.80;62.00;;;;;;5091268;28;20092;-68
2021/05/05 08:23:16;;;;;;;4.05;0.90;;;15.40;59.00;;;;;;5091908;28;20051;-68
2021/05/05 08:25:42;;;;;;;3.10;0.95;;;15.70;58.00;;;;;;5087538;28;20392;-69
2021/05/05 08:28:08;;;;;;;2.72;0.75;;;16.00;57.70;;;;;;5078365;28;20025;-66
2021/05/05 08:30:34;;;;;;;3.83;0.93;;;15.90;56.10;;;;;;5088108;28;20028;-70
2021/05/05 08:33:00;;;;;;;2.20;1.05;;;15.30;57.50;;;;;;5087145;28;20025;-69
2021/05/05 08:35:26;;;;;;;2.25;1.08;;;16.10;55.80;;;;;;5089567;28;20027;-69
2021/05/05 08:37:52;;;;;;;4.10;1.02;;;16.60;54.60;;;;;;5091029;28;20028;-69
2021/05/05 08:40:19;;;;;;;4.63;1.00;;;17.00;53.30;;;;;;5091376;28;20051;-69
2021/05/05 08:42:46;;;;;;;4.57;1.08;;;17.30;52.00;;;;;;5091014;28;20031;-69
2021/05/05 08:45:20;;;;;;;3.53;1.10;;;17.60;51.50;;;;;;5089904;28;20039;-69
2021/05/05 08:47:47;;;;;;;4.25;0.90;;;17.40;50.40;;;;;;5089894;28;20103;-69
2021/05/05 08:50:15;;;;;;;4.90;2.33;;;17.80;50.50;;;;;;5079313;28;20399;-69
2021/05/05 08:52:41;;;;;;;4.10;1.10;;;16.70;52.00;;;;;;5071793;28;20048;-68
2021/05/05 08:55:09;;;;;;;4.18;1.00;;;16.40;51.80;;;;;;5089357;28;20066;-68
2021/05/05 08:57:34;;;;;;;3.17;0.98;;;14.90;52.90;;;;;;5090493;28;20028;-68
2021/05/05 09:00:01;;;;;;;4.70;0.82;;;14.90;53.40;;;;;;5091139;28;20035;-69
2021/05/05 09:02:27;;;;;;;7.35;0.93;;;14.50;53.90;;;;;;5090682;28;20054;-69
2021/05/05 09:05:03;;;;;;;2.70;0.88;;;13.80;55.50;;;;;;5085881;28;20467;-70
2021/05/05 09:07:37;;;;;;;4.28;1.50;;;13.10;56.70;;;;;;5089528;28;20028;-68
2021/05/05 09:10:07;;;;;;;2.47;1.00;;;14.10;55.10;;;;;;5095247;28;20117;-68
2021/05/05 09:12:35;;;;;;;3.15;0.90;;;14.90;54.00;;;;;;5090681;28;20107;-69
2021/05/05 09:15:28;;;;;;;3.58;1.02;;;15.80;53.20;;;;;;5089194;28;20027;-69
2021/05/05 09:17:56;;;;;;;2.25;0.80;;;16.70;51.50;;;;;;5084562;28;20027;-68
2021/05/05 09:20:25;;;;;;;3.97;0.88;;;16.20;52.90;;;;;;5085685;28;20024;-68
2021/05/05 09:22:58;;;;;;;5.10;0.90;;;15.90;53.30;;;;;;5085733;28;20032;-69
2021/05/05 09:25:49;;;;;;;4.15;0.82;;;16.70;52.10;;;;;;5087128;28;20039;-68
2021/05/05 09:28:22;;;;;;;3.80;1.10;;;16.40;51.40;;;;;;5088141;28;20043;-69
2021/05/05 09:30:53;;;;;;;3.08;1.17;;;16.60;51.30;;;;;;5087406;28;20508;-69
2021/05/05 09:33:33;;;;;;;3.15;0.70;;;16.20;52.80;;;;;;5090249;28;20472;-69
2021/05/05 09:36:09;;;;;;;3.95;1.20;;;15.30;53.70;;;;;;5093259;28;20038;-69
2021/05/05 09:38:40;;;;;;;4.32;1.02;;;14.40;54.00;;;;;;5088785;28;20019;-69
2021/05/05 09:41:06;;;;;;;3.05;0.90;;;13.60;54.90;;;;;;5086847;28;20039;-69
2021/05/05 09:43:36;;;;;;;2.92;0.88;;;13.40;55.10;;;;;;5094254;28;20036;-69
2021/05/05 09:46:02;;;;;;;3.63;0.80;;;12.90;55.50;;;;;;5093708;28;20515;-69
2021/05/05 09:48:27;;;;;;;2.65;1.15;;;12.50;56.50;;;;;;5094285;28;20475;-69
2021/05/05 09:50:59;;;;;;;6.05;1.30;;;12.00;57.30;;;;;;5094153;28;20027;-68
2021/05/05 09:53:32;;;;;;;4.55;1.30;;;11.50;57.70;;;;;;5093179;28;20044;-70
2021/05/05 09:55:58;;;;;;;3.80;0.93;;;11.00;58.40;;;;;;5086939;28;20060;-68
2021/05/05 09:58:31;;;;;;;3.28;1.10;;;10.50;59.40;;;;;;5093482;28;20051;-69
2021/05/05 10:01:07;;;;;;;4.95;1.30;;;10.20;60.20;;;;;;5093908;28;20047;-68
2021/05/05 10:03:42;;;;;;;4.00;1.10;;;9.80;60.90;;;;;;5089630;28;20052;-68
2021/05/05 10:06:29;;;;;;;4.57;1.20;;;10.10;62.40;;;;;;5083630;28;20043;-71
2021/05/05 10:09:06;;;;;;;3.22;0.90;;;10.90;64.10;;;;;;5088697;28;20032;-67
2021/05/05 10:11:34;;;;;;;5.47;1.58;;;11.50;64.00;;;;;;5092367;28;20020;-69
2021/05/05 10:14:08;;;;;;;3.45;0.95;;;12.10;64.60;;;;;;5091265;28;20039;-69
2021/05/05 10:16:40;;;;;;;6.22;1.00;;;12.70;64.70;;;;;;5085873;28;20020;-69
2021/05/05 10:19:08;;;;;;;7.35;1.48;;;13.10;63.90;;;;;;5092257;28;20058;-68
2021/05/05 10:21:39;;;;;;;3.90;1.10;;;13.50;63.40;;;;;;5093837;28;20024;-69
2021/05/05 10:24:07;;;;;;;4.10;1.10;;;13.60;62.50;;;;;;5092031;28;20468;-69
2021/05/05 10:26:33;;;;;;;5.13;1.35;;;13.90;62.00;;;;;;5093409;28;20032;-69
2021/05/05 10:28:59;;;;;;;3.47;1.20;;;14.10;61.00;;;;;;5092479;28;20373;-69
2021/05/05 10:31:28;;;;;;;4.32;1.20;;;14.00;60.40;;;;;;5093929;28;20020;-69
2021/05/05 10:34:00;;;;;;;3.75;1.30;;;13.80;60.10;;;;;;5087997;28;20021;-69
2021/05/05 10:36:35;;;;;;;5.20;1.23;;;13.70;58.80;;;;;;5088608;28;20051;-69
2021/05/05 10:39:24;;;;;;;3.35;1.10;;;13.50;57.50;;;;;;5092403;28;20436;-69
2021/05/05 10:41:58;;;;;;;5.45;1.25;;;13.30;56.80;;;;;;5093700;28;20112;-69
2021/05/05 10:44:38;;;;;;;4.55;0.80;;;12.90;57.00;;;;;;5087361;28;20024;-68
2021/05/05 10:47:11;;;;;;;3.72;0.77;;;12.60;56.50;;;;;;5084800;28;20032;-69
2021/05/05 10:50:00;;;;;;;4.18;1.20;;;12.20;56.70;;;;;;5092082;28;20119;-68
2021/05/05 10:52:27;;;;;;;5.05;1.10;;;11.80;57.00;;;;;;5093659;28;20023;-70
2021/05/05 10:54:55;;;;;;;1.75;0.90;;;11.50;57.00;;;;;;5089971;28;20020;-70
2021/05/05 10:57:22;;;;;;;3.35;0.82;;;11.50;57.00;;;;;;5092954;28;20396;-70
2021/05/05 10:59:56;;;;;;;5.90;0.95;;;11.40;57.20;;;;;;5092132;28;20107;-68
2021/05/05 11:02:45;;;;;;;2.88;0.88;;;11.30;56.90;;;;;;5092058;28;20028;-69
2021/05/05 11:05:15;;;;;;;0.98;0.50;;;11.10;57.50;;;;;;5077098;28;20035;-67
2021/05/05 11:07:53;;;;;;;0.75;0.50;;;10.70;57.70;;;;;;5085461;28;20081;-68
2021/05/05 11:10:46;;;;;;;1.95;0.60;;;10.00;58.80;;;;;;5093332;28;20089;-68
2021/05/05 11:13:24;;;;;;;0.40;0.40;;;9.30;60.10;;;;;;5072009;28;20120;-68
2021/05/05 11:15:55;;;;;;;0.60;0.60;;;8.60;61.10;;;;;;5087246;28;20500;-68
2021/05/05 11:18:30;;;;;;;0.30;0.30;;;8.10;62.20;;;;;;5094275;28;20102;-68
2021/05/05 11:20:58;;;;;;;0.50;0.50;;;7.60;63.40;;;;;;5090918;28;20032;-68
2021/05/05 11:23:33;;;;;;;0.95;0.50;;;7.20;63.80;;;;;;5092035;28;20028;-68
2021/05/05 11:26:26;;;;;;;0.50;0.50;;;6.90;64.90;;;;;;5089444;28;20039;-67
2021/05/05 11:28:58;;;;;;;0.68;0.50;;;6.60;65.90;;;;;;5092733;28;20392;-66
2021/05/05 11:34:28;;;;;;;1.15;0.50;;;6.20;66.90;;;;;;5090829;28;20032;-66
2021/05/05 11:37:00;;;;;;;0.82;0.60;;;6.10;67.40;;;;;;5088227;28;20381;-67
2021/05/05 11:39:30;;;;;;;2.00;0.63;;;6.10;67.70;;;;;;5090506;28;20126;-67
2021/05/05 11:41:57;;;;;;;1.83;0.90;;;6.20;67.80;;;;;;5090141;28;20040;-67
2021/05/05 11:44:51;;;;;;;0.70;0.63;;;6.30;68.20;;;;;;5103347;28;20073;-68
2021/05/05 11:47:20;;;;;;;1.13;0.60;;;6.40;69.00;;;;;;5095127;28;20372;-67
2021/05/05 11:49:49;;;;;;;1.52;0.60;;;6.60;69.00;;;;;;5085890;28;20123;-67
2021/05/05 11:52:32;;;;;;;2.03;0.85;;;6.80;69.00;;;;;;5084021;28;20024;-67
2021/05/05 11:55:06;;;;;;;0.60;0.60;;;6.80;69.20;;;;;;5090960;28;20077;-67
2021/05/05 11:57:47;;;;;;;0.60;0.60;;;6.90;69.40;;;;;;5089279;28;20024;-67
2021/05/05 12:00:16;;;;;;;1.30;0.88;;;7.00;69.20;;;;;;5092090;28;20054;-67
2021/05/05 12:02:51;;;;;;;1.27;0.82;;;7.20;69.60;;;;;;5091730;28;20113;-68
2021/05/05 12:05:40;;;;;;;1.95;1.00;;;7.40;70.10;;;;;;5089280;28;20028;-68
2021/05/05 12:08:12;;;;;;;2.70;0.95;;;7.60;70.50;;;;;;5089270;28;20391;-69
2021/05/05 12:10:52;;;;;;;2.63;1.27;;;8.00;69.90;;;;;;5090338;28;20036;-68
2021/05/05 12:13:23;;;;;;;1.80;1.10;;;8.20;69.80;;;;;;5090757;28;20020;-68
2021/05/05 12:16:14;;;;;;;1.98;0.80;;;8.40;69.40;;;;;;5090078;28;20012;-69
2021/05/05 12:18:47;;;;;;;4.30;1.27;;;8.50;70.00;;;;;;5091078;28;20077;-71
2021/05/05 12:21:25;;;;;;;1.98;1.10;;;8.60;69.80;;;;;;5091604;28;20089;-71
2021/05/05 12:24:00;;;;;;;3.53;1.10;;;8.70;69.50;;;;;;5089639;28;20115;-69
2021/05/05 12:26:30;;;;;;;3.67;1.17;;;8.80;69.70;;;;;;5090877;28;20032;-70
2021/05/05 12:29:01;;;;;;;1.13;0.90;;;8.80;69.50;;;;;;5087837;28;20031;-69
2021/05/05 12:31:29;;;;;;;1.52;1.10;;;8.80;69.40;;;;;;5096104;28;20020;-70
2021/05/05 12:33:57;;;;;;;1.42;1.08;;;8.70;69.70;;;;;;5091334;28;20028;-70
2021/05/05 12:36:26;;;;;;;1.55;0.88;;;8.80;69.90;;;;;;5087347;28;20024;-69
2021/05/05 12:38:55;;;;;;;3.28;1.15;;;8.90;70.20;;;;;;5089576;28;20020;-70
2021/05/05 12:41:24;;;;;;;2.05;1.05;;;9.00;70.40;;;;;;5090691;28;20028;-70
2021/05/05 12:43:52;;;;;;;1.92;0.85;;;9.10;70.40;;;;;;5089401;28;20089;-71
2021/05/05 12:46:32;;;;;;;2.65;1.33;;;9.40;70.40;;;;;;5089348;28;20380;-68
2021/05/05 12:48:58;;;;;;;4.15;1.17;;;9.50;70.30;;;;;;5088639;28;20020;-68
2021/05/05 12:51:27;;;;;;;3.03;1.30;;;9.60;70.20;;;;;;5080906;28;20055;-68
2021/05/05 12:53:54;;;;;;;4.32;1.27;;;9.70;69.90;;;;;;5093294;28;20047;-69
2021/05/05 12:56:45;;;;;;;1.73;1.00;;;9.80;69.80;;;;;;5090120;28;20491;-68
2021/05/05 12:59:30;;;;;;;2.17;1.10;;;10.00;69.50;;;;;;5089697;28;20020;-68
2021/05/05 13:02:05;;;;;;;4.28;2.15;;;9.90;69.50;;;;;;5089760;28;20039;-68
2021/05/05 13:04:39;;;;;;;2.95;1.00;;;9.90;69.10;;;;;;5086411;28;20032;-68
2021/05/05 13:07:05;;;;;;;3.20;1.30;;;9.80;69.10;;;;;;5086692;28;20103;-68
2021/05/05 13:09:32;;;;;;;3.72;1.30;;;9.60;69.10;;;;;;5077780;28;20039;-69
2021/05/05 13:12:25;;;;;;;2.75;1.30;;;9.50;69.00;;;;;;5080302;28;20032;-69
2021/05/05 13:15:16;;;;;;;3.08;1.00;;;9.40;69.10;;;;;;5097754;28;20412;-68